createdAt,value
2022-10-01T00:03:10.813Z,36.10
2022-10-01T00:08:16.122Z,23.90
2022-10-01T00:13:17.844Z,25.60
2022-10-01T00:18:19.538Z,30.90
2022-10-01T00:23:21.271Z,28.60
2022-10-01T00:28:22.989Z,31.80
2022-10-01T00:33:25.946Z,37.60
2022-10-01T00:38:28.738Z,28.90
2022-10-01T00:43:37.275Z,26.60
2022-10-01T00:48:59.041Z,27.30
2022-10-01T00:54:10.807Z,29.50
2022-10-01T00:59:15.710Z,31.10
2022-10-01T01:04:17.852Z,29.50
2022-10-01T01:09:22.341Z,26.90
2022-10-01T01:14:57.463Z,29.20
2022-10-01T01:20:08.145Z,31.30
2022-10-01T01:25:21.714Z,33.60
2022-10-01T01:30:24.016Z,35.10
2022-10-01T01:35:37.079Z,35.10
2022-10-01T01:40:42.979Z,26.90
2022-10-01T01:45:47.685Z,31.20
2022-10-01T01:51:04.752Z,38.60
2022-10-01T01:56:07.473Z,48.70
2022-10-01T02:01:40.711Z,31.90
2022-10-01T02:07:23.984Z,43.20
2022-10-01T02:12:50.879Z,35.80
2022-10-01T02:18:42.612Z,35.70
2022-10-01T02:24:01.010Z,34.40
2022-10-01T02:29:09.409Z,34.20
2022-10-01T02:34:19.993Z,34.70
2022-10-01T02:39:26.686Z,34.00
2022-10-01T02:44:41.499Z,36.50
2022-10-01T02:49:43.894Z,39.70
2022-10-01T02:54:54.268Z,40.60
2022-10-01T03:00:08.632Z,35.60
2022-10-01T03:05:10.519Z,30.40
2022-10-01T03:10:15.562Z,27.10
2022-10-01T03:15:19.779Z,30.90
2022-10-01T03:20:22.481Z,28.60
2022-10-01T03:25:24.328Z,39.20
2022-10-01T03:30:26.439Z,34.80
2022-10-01T03:35:28.120Z,29.40
2022-10-01T03:40:32.741Z,25.40
2022-10-01T03:45:34.416Z,31.70
2022-10-01T03:50:36.134Z,41.10
2022-10-01T03:55:37.772Z,44.70
2022-10-01T04:00:39.378Z,54.10
2022-10-01T04:05:45.931Z,43.70
2022-10-01T04:10:48.918Z,48.50
2022-10-01T04:15:50.592Z,32.70
2022-10-01T04:20:52.333Z,30.30
2022-10-01T04:25:54.475Z,29.10
2022-10-01T04:31:15.064Z,27.10
2022-10-01T04:36:16.946Z,27.50
2022-10-01T04:41:19.271Z,37.80
2022-10-01T04:46:21.185Z,36.40
2022-10-01T04:51:23.089Z,33.80
2022-10-01T04:56:24.749Z,32.80
2022-10-01T05:01:26.432Z,28.40
2022-10-01T05:06:28.187Z,30.90
2022-10-01T05:11:29.991Z,38.20
2022-10-01T05:16:31.704Z,48.30
2022-10-01T05:21:33.629Z,40.80
2022-10-01T05:26:37.252Z,40.40
2022-10-01T05:31:43.816Z,31.90
2022-10-01T05:36:45.558Z,69.60
2022-10-01T05:41:47.188Z,51.10
2022-10-01T05:46:49.886Z,38.40
2022-10-01T05:51:51.564Z,60.60
2022-10-01T05:56:54.157Z,44.00
2022-10-01T06:01:55.912Z,39.20
2022-10-01T06:06:58.452Z,44.20
2022-10-01T06:12:00.343Z,38.70
2022-10-01T06:17:02.031Z,80.50
2022-10-01T06:22:03.717Z,72.90
2022-10-01T06:27:05.472Z,41.60
2022-10-01T06:32:10.239Z,54.20
2022-10-01T06:37:12.026Z,46.70
2022-10-01T06:42:13.851Z,57.20
2022-10-01T06:47:15.630Z,45.60
2022-10-01T06:52:35.842Z,59.00
2022-10-01T06:57:37.566Z,34.10
2022-10-01T07:02:40.736Z,37.30
2022-10-01T07:07:44.312Z,34.30
2022-10-01T07:12:50.195Z,34.10
2022-10-01T07:17:52.451Z,50.00
2022-10-01T07:22:59.630Z,44.50
2022-10-01T07:28:05.096Z,43.10
2022-10-01T07:33:06.889Z,27.20
2022-10-01T07:38:08.763Z,20.90
2022-10-01T07:43:10.544Z,20.90
2022-10-01T07:48:16.829Z,18.20
2022-10-01T07:53:19.593Z,26.00
2022-10-01T07:58:23.448Z,24.70
2022-10-01T08:03:25.244Z,16.30
2022-10-01T08:08:26.993Z,17.70
2022-10-01T08:13:29.278Z,10.80
2022-10-01T08:18:32.888Z,18.20
2022-10-01T08:23:35.933Z,13.40
2022-10-01T08:28:37.878Z,12.40
2022-10-01T08:33:40.065Z,14.20
2022-10-01T08:38:47.084Z,14.90
2022-10-01T08:43:51.217Z,15.50
2022-10-01T08:49:20.215Z,11.70
2022-10-01T08:54:42.258Z,12.70
2022-10-01T08:59:44.030Z,11.60
2022-10-01T09:04:49.869Z,13.80
2022-10-01T09:10:17.610Z,14.40
2022-10-01T09:15:58.173Z,18.40
2022-10-01T09:21:00.456Z,16.20
2022-10-01T09:26:02.944Z,15.50
2022-10-01T09:31:26.233Z,14.10
2022-10-01T09:36:47.146Z,11.80
2022-10-01T09:41:48.922Z,9.90
2022-10-01T09:46:51.007Z,8.70
2022-10-01T09:52:05.822Z,12.40
2022-10-01T09:57:16.585Z,9.90
2022-10-01T10:02:32.149Z,11.80
2022-10-01T10:07:34.906Z,18.10
2022-10-01T10:12:37.161Z,12.20
2022-10-01T10:17:43.724Z,15.60
2022-10-01T10:22:45.521Z,12.00
2022-10-01T10:27:56.115Z,9.80
2022-10-01T10:33:07.591Z,13.70
2022-10-01T10:38:20.022Z,9.50
2022-10-01T10:43:29.989Z,7.30
2022-10-01T10:48:47.615Z,9.70
2022-10-01T10:53:49.372Z,9.20
2022-10-01T10:58:53.437Z,12.90
2022-10-01T11:04:00.021Z,10.10
2022-10-01T11:09:10.030Z,10.50
2022-10-01T11:14:23.912Z,10.70
2022-10-01T11:19:31.775Z,8.70
2022-10-01T11:25:11.077Z,11.90
2022-10-01T11:30:47.515Z,7.70
2022-10-01T11:36:14.737Z,7.40
2022-10-01T11:41:42.787Z,7.80
2022-10-01T11:46:59.186Z,10.30
2022-10-01T11:52:35.083Z,12.10
2022-10-01T11:57:55.685Z,9.40
2022-10-01T12:03:02.389Z,10.40
2022-10-01T12:08:26.088Z,9.40
2022-10-01T12:13:39.822Z,12.10
2022-10-01T12:18:57.224Z,16.40
2022-10-01T12:24:28.669Z,23.00
2022-10-01T12:29:57.923Z,11.50
2022-10-01T12:35:12.117Z,9.30
2022-10-01T12:40:50.961Z,8.40
2022-10-01T12:46:26.897Z,9.20
2022-10-01T12:51:53.659Z,13.60
2022-10-01T12:57:08.101Z,15.10
2022-10-01T13:02:38.961Z,13.50
2022-10-01T13:08:08.970Z,12.30
2022-10-01T13:13:32.446Z,10.00
2022-10-01T13:19:09.172Z,9.40
2022-10-01T13:24:42.145Z,12.50
2022-10-01T13:30:34.918Z,10.30
2022-10-01T13:35:40.074Z,11.00
2022-10-01T13:40:42.868Z,8.60
2022-10-01T13:45:48.365Z,11.70
2022-10-01T13:51:02.600Z,10.20
2022-10-01T13:56:05.400Z,9.70
2022-10-01T14:01:21.386Z,7.20
2022-10-01T14:06:36.776Z,10.20
2022-10-01T14:12:04.281Z,9.10
2022-10-01T14:17:09.403Z,7.10
2022-10-01T14:22:52.370Z,8.50
2022-10-01T14:28:32.854Z,10.90
2022-10-01T14:33:40.467Z,10.80
2022-10-01T14:38:42.453Z,22.10
2022-10-01T14:43:44.538Z,22.90
2022-10-01T14:48:59.000Z,14.90
2022-10-01T14:54:01.292Z,15.30
2022-10-01T14:59:05.441Z,12.80
2022-10-01T15:04:20.736Z,15.70
2022-10-01T15:09:22.895Z,13.90
2022-10-01T15:14:25.589Z,14.30
2022-10-01T15:19:27.878Z,21.30
2022-10-01T15:24:45.926Z,18.10
2022-10-01T15:35:01.536Z,17.30
2022-10-01T15:40:19.486Z,26.50
2022-10-01T15:45:25.415Z,22.80
2022-10-01T15:50:36.103Z,32.70
2022-10-01T15:55:52.611Z,31.00
2022-10-01T16:01:07.041Z,31.20
2022-10-01T16:06:27.487Z,35.60
2022-10-01T16:11:35.442Z,38.50
2022-10-01T16:16:37.699Z,23.70
2022-10-01T16:21:40.592Z,39.50
2022-10-01T16:26:44.727Z,40.70
2022-10-01T16:31:47.005Z,47.50
2022-10-01T16:36:49.807Z,41.10
2022-10-01T16:42:12.161Z,27.70
2022-10-01T16:47:14.770Z,26.70
2022-10-01T16:52:16.829Z,30.30
2022-10-01T16:57:18.731Z,27.70
2022-10-01T17:02:20.567Z,25.20
2022-10-01T17:07:22.541Z,20.80
2022-10-01T17:12:26.524Z,23.80
2022-10-01T17:17:28.276Z,34.60
2022-10-01T17:22:31.078Z,23.70
2022-10-01T17:27:32.894Z,26.40
2022-10-01T17:32:36.782Z,24.90
2022-10-01T17:37:39.969Z,30.40
2022-10-01T17:42:41.760Z,27.00
2022-10-01T17:47:46.062Z,34.90
2022-10-01T17:52:48.292Z,17.00
2022-10-01T17:58:23.333Z,18.60
2022-10-01T18:03:26.475Z,20.40
2022-10-01T18:08:51.208Z,25.20
2022-10-01T18:13:53.849Z,64.80
2022-10-01T18:24:25.905Z,30.40
2022-10-01T18:29:28.988Z,40.90
2022-10-01T18:35:00.160Z,57.00
2022-10-01T18:40:17.992Z,49.10
2022-10-01T18:45:48.667Z,38.30
2022-10-01T18:51:24.756Z,31.20
2022-10-01T18:56:34.030Z,22.60
2022-10-01T19:02:13.634Z,16.70
2022-10-01T19:08:06.859Z,18.80
2022-10-01T19:14:09.310Z,19.20
2022-10-01T19:19:58.296Z,15.80
2022-10-01T19:25:08.736Z,21.60
2022-10-01T19:30:19.941Z,16.80
2022-10-01T19:35:32.152Z,16.60
2022-10-01T19:40:51.575Z,17.60
2022-10-01T19:46:26.611Z,13.90
2022-10-01T19:51:35.471Z,15.40
2022-10-01T19:56:40.172Z,20.60
2022-10-01T20:02:33.881Z,18.50
2022-10-01T20:08:07.719Z,18.40
2022-10-01T20:13:53.277Z,17.90
2022-10-01T20:19:18.527Z,19.10
2022-10-01T20:24:41.049Z,19.40
2022-10-01T20:29:56.104Z,17.90
2022-10-01T20:35:31.393Z,27.00
2022-10-01T20:40:49.958Z,24.20
2022-10-01T20:45:55.362Z,21.80
2022-10-01T20:51:10.281Z,20.70
2022-10-01T20:56:28.537Z,20.20
2022-10-01T21:01:36.674Z,21.00
2022-10-01T21:07:00.248Z,23.80
2022-10-01T21:12:21.995Z,26.00
2022-10-01T21:18:21.278Z,21.80
2022-10-01T21:23:39.780Z,19.60
2022-10-01T21:34:19.896Z,18.10
2022-10-01T21:39:55.557Z,15.80
2022-10-01T21:45:46.924Z,11.60
2022-10-01T21:50:53.281Z,7.60
2022-10-01T21:56:26.797Z,10.90
2022-10-01T22:01:54.940Z,8.00
2022-10-01T22:07:37.215Z,9.10
2022-10-01T22:12:46.474Z,7.20
2022-10-01T22:17:53.843Z,9.60
2022-10-01T22:23:09.045Z,6.50
2022-10-01T22:28:25.458Z,8.00
2022-10-01T22:33:38.312Z,7.10
2022-10-01T22:38:54.524Z,6.80
2022-10-01T22:43:57.737Z,7.30
2022-10-01T22:50:14.348Z,5.80
2022-10-01T22:55:57.922Z,6.30
2022-10-01T23:01:22.512Z,8.90
2022-10-01T23:06:56.161Z,6.20
2022-10-01T23:12:27.341Z,6.50
2022-10-01T23:17:51.926Z,6.10
2022-10-01T23:23:33.716Z,6.70
2022-10-01T23:28:44.893Z,7.60
2022-10-01T23:34:01.352Z,14.40
2022-10-01T23:39:19.620Z,7.00
2022-10-01T23:45:01.229Z,7.10
2022-10-01T23:50:10.915Z,8.00
2022-10-01T23:55:51.602Z,9.50
